Time;durP1;ratioP1;P1;durP2;ratioP2;P2;SDS_P1;SDS_P2;PMS_P1;PMS_P2;Temp;Humidity;BMP_temperature;BMP_pressure;BME280_temperature;BME280_humidity;BME280_pressure;Samples;Min_cycle;Max_cycle;Signal;HPM_P1;HPM_P2
2022/06/23 00:00:35;;;;;;;7.55;1.73;;;;;;;;;;5086285;28;20040;-84
2022/06/23 00:03:02;;;;;;;5.15;1.45;;;;;;;;;;5084806;28;20066;-84
2022/06/23 00:05:35;;;;;;;7.50;1.70;;;;;;;;;;5085840;28;20040;-84
2022/06/23 00:08:01;;;;;;;6.30;1.75;;;;;;;;;;5086083;28;20029;-84
2022/06/23 00:10:36;;;;;;;8.02;1.80;;;;;;;;;;5085215;28;20036;-84
2022/06/23 00:13:03;;;;;;;9.32;1.80;;;;;;;;;;5086222;28;20047;-84
2022/06/23 00:15:41;;;;;;;6.40;1.50;;;;;;;;;;5086190;28;20028;-84
2022/06/23 00:18:16;;;;;;;8.05;2.00;;;;;;;;;;5085763;28;20088;-84
2022/06/23 00:20:58;;;;;;;6.70;1.85;;;;;;;;;;5084257;28;20056;-84
2022/06/23 00:23:37;;;;;;;5.70;1.52;;;;;;;;;;5086327;28;20039;-84
2022/06/23 00:26:20;;;;;;;5.05;1.70;;;;;;;;;;5085018;28;20040;-84
2022/06/23 00:28:54;;;;;;;6.78;1.95;;;;;;;;;;5085911;28;20435;-83
2022/06/23 00:31:31;;;;;;;4.80;1.65;;;;;;;;;;5085888;28;20212;-84
2022/06/23 00:34:00;;;;;;;7.53;1.70;;;;;;;;;;5084135;28;20064;-82
2022/06/23 00:36:48;;;;;;;6.18;1.77;;;;;;;;;;5067679;28;20078;-87
2022/06/23 00:39:34;;;;;;;3.63;1.52;;;;;;;;;;5086019;28;20032;-87
2022/06/23 00:42:03;;;;;;;7.38;1.67;;;;;;;;;;5085690;28;20051;-86
2022/06/23 00:44:48;;;;;;;6.60;1.80;;;;;;;;;;5083866;28;20066;-87
2022/06/23 00:47:20;;;;;;;6.90;1.67;;;;;;;;;;5085376;28;20031;-87
2022/06/23 00:49:52;;;;;;;6.18;1.50;;;;;;;;;;5085566;28;20442;-86
2022/06/23 00:52:38;;;;;;;7.43;1.60;;;;;;;;;;5084670;28;20059;-86
2022/06/23 00:55:18;;;;;;;6.68;1.90;;;;;;;;;;5084611;28;20078;-86
2022/06/23 00:57:52;;;;;;;6.72;1.75;;;;;;;;;;5085317;28;20051;-87
2022/06/23 01:00:23;;;;;;;5.45;1.60;;;;;;;;;;5067602;28;20044;-86
2022/06/23 01:02:58;;;;;;;7.10;1.73;;;;;;;;;;5084633;28;20040;-87
2022/06/23 01:05:33;;;;;;;6.10;2.05;;;;;;;;;;5084910;28;20056;-87
2022/06/23 01:08:21;;;;;;;6.53;1.67;;;;;;;;;;5084529;28;20041;-87
2022/06/23 01:11:16;;;;;;;4.90;1.40;;;;;;;;;;5084913;28;20036;-87
2022/06/23 01:13:44;;;;;;;6.05;1.75;;;;;;;;;;5082700;28;20076;-86
2022/06/23 01:16:26;;;;;;;5.80;1.70;;;;;;;;;;5082911;28;20580;-85
2022/06/23 01:19:08;;;;;;;5.82;1.77;;;;;;;;;;5083526;28;20044;-87
2022/06/23 01:21:44;;;;;;;5.63;2.05;;;;;;;;;;5083667;28;20040;-87
2022/06/23 01:24:34;;;;;;;9.60;2.25;;;;;;;;;;5081882;28;20039;-86
2022/06/23 01:27:23;;;;;;;8.15;2.22;;;;;;;;;;5081656;28;20098;-87
2022/06/23 01:30:08;;;;;;;10.43;2.58;;;;;;;;;;5063593;28;20040;-88
2022/06/23 01:33:13;;;;;;;7.68;2.20;;;;;;;;;;5082192;28;20100;-87
2022/06/23 01:35:47;;;;;;;8.80;2.28;;;;;;;;;;5082334;28;20095;-87
2022/06/23 01:38:27;;;;;;;7.28;2.08;;;;;;;;;;5082334;28;20037;-87
2022/06/23 01:41:04;;;;;;;5.70;2.03;;;;;;;;;;5083167;28;20041;-87
2022/06/23 01:43:39;;;;;;;8.50;2.00;;;;;;;;;;5082202;28;20477;-88
2022/06/23 01:46:38;;;;;;;6.25;2.00;;;;;;;;;;5080474;28;20506;-87
2022/06/23 01:49:40;;;;;;;5.95;1.80;;;;;;;;;;5082662;28;20044;-87
2022/06/23 01:52:20;;;;;;;5.13;1.67;;;;;;;;;;5076781;28;20048;-87
2022/06/23 01:54:57;;;;;;;5.70;1.52;;;;;;;;;;5082047;28;20389;-87
2022/06/23 01:57:28;;;;;;;6.18;1.80;;;;;;;;;;5082620;28;20036;-87
2022/06/23 02:00:07;;;;;;;8.98;2.08;;;;;;;;;;5083065;28;20047;-87
2022/06/23 02:02:59;;;;;;;6.47;2.08;;;;;;;;;;5084078;28;20052;-87
2022/06/23 02:05:50;;;;;;;11.02;1.80;;;;;;;;;;5082745;28;20032;-87
2022/06/23 02:08:47;;;;;;;8.55;1.90;;;;;;;;;;5082610;28;20028;-87
2022/06/23 02:11:24;;;;;;;6.13;2.13;;;;;;;;;;5083372;28;20092;-87
2022/06/23 02:14:25;;;;;;;4.97;1.58;;;;;;;;;;5083661;28;20063;-88
2022/06/23 02:16:51;;;;;;;9.23;2.15;;;;;;;;;;5081683;28;20064;-87
2022/06/23 02:19:45;;;;;;;6.20;1.60;;;;;;;;;;5082835;28;20428;-86
2022/06/23 02:22:34;;;;;;;5.28;1.80;;;;;;;;;;5083075;28;20032;-87
2022/06/23 02:25:03;;;;;;;7.88;1.88;;;;;;;;;;5082564;28;20036;-87
2022/06/23 02:27:50;;;;;;;8.23;1.90;;;;;;;;;;5082662;28;20024;-87
2022/06/23 02:30:20;;;;;;;5.85;2.10;;;;;;;;;;5083226;28;20036;-88
2022/06/23 02:33:16;;;;;;;5.63;1.60;;;;;;;;;;5082144;28;20033;-87
2022/06/23 02:36:18;;;;;;;8.07;2.03;;;;;;;;;;5082712;28;20111;-88
2022/06/23 02:38:49;;;;;;;6.32;2.03;;;;;;;;;;5047019;28;20056;-87
2022/06/23 02:41:25;;;;;;;7.15;2.22;;;;;;;;;;5086252;28;20036;-87
2022/06/23 02:44:26;;;;;;;4.82;1.73;;;;;;;;;;5086750;28;20037;-88
2022/06/23 02:47:19;;;;;;;4.22;1.92;;;;;;;;;;5069419;28;20037;-87
2022/06/23 02:50:20;;;;;;;8.10;2.08;;;;;;;;;;5085642;28;20039;-86
2022/06/23 02:53:04;;;;;;;4.68;1.75;;;;;;;;;;5087402;28;20086;-86
2022/06/23 02:56:02;;;;;;;5.35;1.60;;;;;;;;;;5085852;28;20123;-87
2022/06/23 02:58:45;;;;;;;10.13;2.10;;;;;;;;;;5085627;28;20037;-87
2022/06/23 03:01:29;;;;;;;6.65;1.80;;;;;;;;;;5086572;28;20050;-86
2022/06/23 03:04:05;;;;;;;6.50;1.83;;;;;;;;;;5086993;28;20047;-87
2022/06/23 03:06:40;;;;;;;9.07;1.98;;;;;;;;;;5086365;28;20028;-85
2022/06/23 03:09:08;;;;;;;9.48;2.00;;;;;;;;;;5084543;28;20040;-88
2022/06/23 03:11:51;;;;;;;6.90;1.65;;;;;;;;;;5085467;28;20124;-88
2022/06/23 03:14:32;;;;;;;4.57;1.70;;;;;;;;;;5085213;28;20048;-86
2022/06/23 03:17:10;;;;;;;5.10;2.00;;;;;;;;;;5085776;28;20059;-87
2022/06/23 03:19:42;;;;;;;5.90;1.80;;;;;;;;;;5086856;28;20042;-86
2022/06/23 03:22:17;;;;;;;6.32;1.65;;;;;;;;;;5085701;28;20036;-86
2022/06/23 03:24:52;;;;;;;6.85;2.00;;;;;;;;;;5086238;28;20443;-87
2022/06/23 03:27:28;;;;;;;7.40;1.70;;;;;;;;;;5085194;28;20095;-86
2022/06/23 03:30:13;;;;;;;6.72;2.05;;;;;;;;;;5086855;28;20035;-87
2022/06/23 03:32:47;;;;;;;5.20;2.00;;;;;;;;;;5086952;28;20088;-87
2022/06/23 03:35:19;;;;;;;10.00;2.15;;;;;;;;;;5086043;28;20048;-85
2022/06/23 03:38:05;;;;;;;5.07;2.00;;;;;;;;;;5085636;28;20036;-87
2022/06/23 03:43:31;;;;;;;7.63;1.98;;;;;;;;;;5086668;28;20078;-86
2022/06/23 03:46:15;;;;;;;8.20;1.92;;;;;;;;;;5086079;28;20119;-85
2022/06/23 03:49:22;;;;;;;5.70;2.20;;;;;;;;;;5085388;28;20047;-86
2022/06/23 03:51:56;;;;;;;6.40;1.85;;;;;;;;;;5085910;28;20044;-86
2022/06/23 03:54:26;;;;;;;8.35;2.10;;;;;;;;;;5085993;28;20036;-86
2022/06/23 03:57:19;;;;;;;9.27;2.00;;;;;;;;;;5086553;28;20041;-87
2022/06/23 04:00:00;;;;;;;6.70;1.90;;;;;;;;;;5085833;28;20040;-86
2022/06/23 04:02:31;;;;;;;7.40;1.88;;;;;;;;;;5086232;28;20094;-87
2022/06/23 04:05:05;;;;;;;5.22;1.60;;;;;;;;;;5085348;28;20048;-86
2022/06/23 04:07:35;;;;;;;6.22;1.83;;;;;;;;;;5086542;28;20040;-86
2022/06/23 04:10:00;;;;;;;3.03;1.60;;;;;;;;;;5086668;28;20028;-87
2022/06/23 04:12:26;;;;;;;4.72;1.90;;;;;;;;;;5086835;28;20035;-86
2022/06/23 04:14:57;;;;;;;7.55;1.75;;;;;;;;;;5085710;28;20041;-87
2022/06/23 04:17:32;;;;;;;7.38;1.80;;;;;;;;;;5084858;28;20047;-86
2022/06/23 04:20:03;;;;;;;6.38;1.65;;;;;;;;;;5084356;28;20036;-85
2022/06/23 04:22:40;;;;;;;8.27;1.70;;;;;;;;;;5086185;28;20036;-86
2022/06/23 04:25:11;;;;;;;9.65;1.88;;;;;;;;;;5083834;28;20052;-86
2022/06/23 04:27:43;;;;;;;6.85;1.70;;;;;;;;;;5087109;28;20075;-87
2022/06/23 04:30:26;;;;;;;6.82;1.70;;;;;;;;;;5089122;28;20032;-86
2022/06/23 04:32:54;;;;;;;8.68;1.90;;;;;;;;;;5087600;28;20500;-86
2022/06/23 04:35:37;;;;;;;4.88;1.80;;;;;;;;;;5087567;28;20044;-86
2022/06/23 04:38:06;;;;;;;;;;;;;;;;;;5086178;28;20033;-85
2022/06/23 04:40:41;;;;;;;5.78;1.80;;;;;;;;;;5084889;28;19916;-87
2022/06/23 04:43:31;;;;;;;6.53;1.70;;;;;;;;;;5086543;28;20488;-86
2022/06/23 04:45:59;;;;;;;7.68;1.95;;;;;;;;;;5084752;28;20036;-86
2022/06/23 04:48:33;;;;;;;7.70;1.77;;;;;;;;;;5085097;28;20042;-87
2022/06/23 04:51:20;;;;;;;8.00;2.20;;;;;;;;;;5086339;28;20048;-87
2022/06/23 04:53:51;;;;;;;9.45;2.10;;;;;;;;;;5068717;28;20024;-87
2022/06/23 04:56:16;;;;;;;5.78;1.95;;;;;;;;;;5084996;28;20049;-87
2022/06/23 04:58:51;;;;;;;7.88;1.90;;;;;;;;;;5085658;28;20106;-87
2022/06/23 05:01:20;;;;;;;7.20;1.83;;;;;;;;;;5086772;28;20056;-87
2022/06/23 05:03:54;;;;;;;8.80;1.80;;;;;;;;;;5086149;28;20028;-87
2022/06/23 05:06:50;;;;;;;10.50;1.80;;;;;;;;;;5086303;28;20043;-87
2022/06/23 05:09:35;;;;;;;6.40;1.98;;;;;;;;;;5085270;28;20052;-87
2022/06/23 05:12:03;;;;;;;6.97;1.70;;;;;;;;;;5085760;28;20028;-87
2022/06/23 05:14:33;;;;;;;7.03;1.80;;;;;;;;;;5084267;28;20032;-87
2022/06/23 05:17:10;;;;;;;5.20;1.65;;;;;;;;;;5085066;28;20044;-87
2022/06/23 05:19:38;;;;;;;6.45;1.80;;;;;;;;;;5086978;28;20067;-87
2022/06/23 05:22:14;;;;;;;8.10;1.92;;;;;;;;;;5085472;28;20025;-87
2022/06/23 05:24:43;;;;;;;5.78;1.92;;;;;;;;;;5085277;28;20092;-87
2022/06/23 05:27:25;;;;;;;8.30;2.15;;;;;;;;;;5083746;28;20020;-87
2022/06/23 05:29:58;;;;;;;5.80;1.85;;;;;;;;;;5085515;28;20047;-87
2022/06/23 05:32:30;;;;;;;7.13;1.90;;;;;;;;;;5085879;28;20218;-88
2022/06/23 05:35:04;;;;;;;5.40;1.80;;;;;;;;;;5084612;28;20054;-88
2022/06/23 05:37:36;;;;;;;10.27;1.80;;;;;;;;;;5084572;28;20036;-87
2022/06/23 05:40:14;;;;;;;6.45;1.70;;;;;;;;;;5066833;28;20090;-87
2022/06/23 05:42:45;;;;;;;6.22;1.55;;;;;;;;;;5083915;28;20378;-86
2022/06/23 05:45:18;;;;;;;6.32;1.60;;;;;;;;;;5085843;28;20036;-86
2022/06/23 05:47:44;;;;;;;5.57;1.50;;;;;;;;;;5085134;28;20048;-86
2022/06/23 05:50:22;;;;;;;3.78;1.50;;;;;;;;;;5085244;28;20041;-87
2022/06/23 05:53:14;;;;;;;8.63;1.50;;;;;;;;;;5085386;28;20104;-87
2022/06/23 05:55:47;;;;;;;5.10;1.40;;;;;;;;;;5078626;28;20041;-86
2022/06/23 05:58:44;;;;;;;4.63;1.42;;;;;;;;;;5081182;28;20055;-86
2022/06/23 06:01:27;;;;;;;7.93;1.52;;;;;;;;;;5072588;28;20044;-87
2022/06/23 06:04:13;;;;;;;8.55;1.70;;;;;;;;;;5080860;28;20133;-86
2022/06/23 06:06:40;;;;;;;4.47;1.40;;;;;;;;;;5080067;28;20500;-86
2022/06/23 06:11:58;;;;;;;5.57;1.50;;;;;;;;;;5080563;28;20039;-87
2022/06/23 06:14:28;;;;;;;7.82;1.60;;;;;;;;;;5080688;28;20174;-86
2022/06/23 06:16:57;;;;;;;6.35;1.40;;;;;;;;;;5081555;28;20511;-87
2022/06/23 06:19:25;;;;;;;10.63;1.60;;;;;;;;;;5081949;28;20042;-87
2022/06/23 06:21:57;;;;;;;5.82;1.33;;;;;;;;;;5081711;28;20025;-87
2022/06/23 06:24:31;;;;;;;7.27;1.40;;;;;;;;;;5082298;28;20123;-87
2022/06/23 06:26:59;;;;;;;7.38;1.80;;;;;;;;;;5082070;28;20059;-85
2022/06/23 06:29:29;;;;;;;7.55;1.80;;;;;;;;;;5082452;28;20051;-86
2022/06/23 06:32:34;;;;;;;8.70;1.77;;;;;;;;;;5084369;28;20067;-87
2022/06/23 06:35:25;;;;;;;9.23;1.60;;;;;;;;;;5082343;28;20048;-87
2022/06/23 06:37:58;;;;;;;5.68;1.58;;;;;;;;;;5079550;28;20044;-86
2022/06/23 06:40:24;;;;;;;3.95;1.55;;;;;;;;;;5084242;28;20036;-86
2022/06/23 06:42:57;;;;;;;11.68;1.88;;;;;;;;;;5085860;28;20036;-86
2022/06/23 06:45:25;;;;;;;;;;;;;;;;;;5082241;28;20044;-86
2022/06/23 06:47:51;;;;;;;6.50;1.65;;;;;;;;;;5082296;28;19974;-85
2022/06/23 06:50:39;;;;;;;6.25;1.73;;;;;;;;;;5082379;28;20040;-86
2022/06/23 06:53:22;;;;;;;5.40;1.75;;;;;;;;;;5081005;28;20024;-86
2022/06/23 06:55:55;;;;;;;6.63;2.00;;;;;;;;;;5080731;28;20067;-85
2022/06/23 06:58:26;;;;;;;7.72;2.25;;;;;;;;;;5082754;28;20039;-87
2022/06/23 07:01:00;;;;;;;8.38;2.30;;;;;;;;;;5078068;28;20044;-87
2022/06/23 07:03:27;;;;;;;11.38;2.60;;;;;;;;;;5080855;28;20035;-87
2022/06/23 07:06:06;;;;;;;7.88;2.17;;;;;;;;;;5080382;28;20064;-87
2022/06/23 07:08:32;;;;;;;7.55;2.28;;;;;;;;;;5078895;28;20524;-87
2022/06/23 07:11:04;;;;;;;9.80;2.22;;;;;;;;;;5081162;28;20020;-87
2022/06/23 07:13:41;;;;;;;9.02;2.15;;;;;;;;;;5083751;28;20047;-87
2022/06/23 07:16:17;;;;;;;8.40;2.83;;;;;;;;;;5080747;28;20060;-87
2022/06/23 07:18:58;;;;;;;8.25;2.30;;;;;;;;;;5083302;28;20040;-86
2022/06/23 07:21:50;;;;;;;19.67;2.92;;;;;;;;;;5081374;28;20032;-83
2022/06/23 07:24:24;;;;;;;7.43;2.45;;;;;;;;;;5073328;28;20048;-83
2022/06/23 07:27:11;;;;;;;11.23;2.08;;;;;;;;;;5076663;28;20028;-84
2022/06/23 07:29:42;;;;;;;10.20;2.70;;;;;;;;;;5076829;28;20060;-84
2022/06/23 07:32:18;;;;;;;9.65;2.67;;;;;;;;;;5094556;28;20536;-84
2022/06/23 07:34:55;;;;;;;8.55;2.28;;;;;;;;;;5094593;28;20480;-84
2022/06/23 07:37:31;;;;;;;10.20;2.75;;;;;;;;;;5096755;28;20032;-84
2022/06/23 07:40:01;;;;;;;8.95;2.80;;;;;;;;;;5096056;28;20476;-83
2022/06/23 07:42:37;;;;;;;11.65;2.70;;;;;;;;;;5096474;28;20070;-84
2022/06/23 07:45:09;;;;;;;8.65;2.60;;;;;;;;;;5095690;28;20454;-84
2022/06/23 07:47:35;;;;;;;9.95;2.60;;;;;;;;;;5096946;28;20032;-84
2022/06/23 07:50:01;;;;;;;12.27;2.88;;;;;;;;;;5078458;28;20030;-84
2022/06/23 07:52:27;;;;;;;9.25;2.88;;;;;;;;;;5095169;28;20051;-84
2022/06/23 07:54:53;;;;;;;10.07;2.97;;;;;;;;;;5096064;28;20043;-84
2022/06/23 07:57:19;;;;;;;11.93;2.80;;;;;;;;;;5096708;28;20040;-84
2022/06/23 07:59:49;;;;;;;12.77;2.88;;;;;;;;;;5094509;28;20028;-84
2022/06/23 08:02:20;;;;;;;7.63;2.88;;;;;;;;;;5096583;28;20373;-85
2022/06/23 08:04:59;;;;;;;8.85;2.78;;;;;;;;;;5095893;28;20047;-85
2022/06/23 08:27:44;;;;;;;9.57;2.60;;;;;;;;;;1153152;23;20320;-84
2022/06/23 08:30:17;;;;;;;14.20;2.80;;;;;;;;;;5036094;28;20045;-84
2022/06/23 08:32:49;;;;;;;8.73;2.90;;;;;;;;;;5017798;28;20052;-81
2022/06/23 08:35:15;;;;;;;10.48;2.67;;;;;;;;;;5034665;28;20470;-83
2022/06/23 08:38:07;;;;;;;10.90;2.60;;;;;;;;;;5034639;28;20030;-82
2022/06/23 08:40:48;;;;;;;14.13;3.05;;;;;;;;;;5035227;28;20112;-83
2022/06/23 08:43:58;;;;;;;10.20;2.53;;;;;;;;;;5035335;28;20068;-82
2022/06/23 08:46:39;;;;;;;11.75;2.75;;;;;;;;;;5003715;28;20510;-82
2022/06/23 08:49:07;;;;;;;9.32;2.88;;;;;;;;;;5035565;28;20033;-83
2022/06/23 08:51:42;;;;;;;9.63;2.85;;;;;;;;;;5034932;28;20030;-82
2022/06/23 08:54:17;;;;;;;12.68;3.10;;;;;;;;;;5034438;28;20095;-82
2022/06/23 08:57:06;;;;;;;8.95;2.95;;;;;;;;;;5034127;28;20048;-83
2022/06/23 08:59:47;;;;;;;8.95;2.53;;;;;;;;;;5035677;28;20525;-82
2022/06/23 09:02:36;;;;;;;16.98;3.35;;;;;;;;;;5017735;28;20038;-83
2022/06/23 09:05:14;;;;;;;12.02;2.50;;;;;;;;;;5034573;28;20095;-83
2022/06/23 09:07:48;;;;;;;16.02;2.50;;;;;;;;;;5035462;28;20054;-83
2022/06/23 09:10:53;;;;;;;8.95;2.60;;;;;;;;;;5035397;28;20045;-83
2022/06/23 09:13:56;;;;;;;10.77;2.28;;;;;;;;;;5035404;28;20081;-83
2022/06/23 09:16:34;;;;;;;12.87;2.87;;;;;;;;;;5035115;28;20398;-84
2022/06/23 09:19:27;;;;;;;7.72;2.38;;;;;;;;;;5017862;28;20034;-83
2022/06/23 09:22:27;;;;;;;11.65;2.80;;;;;;;;;;5035098;28;20103;-82
2022/06/23 09:24:58;;;;;;;12.23;2.67;;;;;;;;;;5034181;28;20040;-84
2022/06/23 09:27:43;;;;;;;13.95;2.50;;;;;;;;;;5034717;28;20121;-84
2022/06/23 09:30:26;;;;;;;12.13;2.55;;;;;;;;;;5017016;28;20134;-83
2022/06/23 09:33:06;;;;;;;10.43;2.72;;;;;;;;;;5017293;28;20052;-84
2022/06/23 09:36:05;;;;;;;12.50;2.90;;;;;;;;;;5016508;28;20080;-83
2022/06/23 09:38:57;;;;;;;10.07;2.72;;;;;;;;;;5017270;28;20045;-83
2022/06/23 09:41:28;;;;;;;9.15;2.60;;;;;;;;;;5016722;28;20064;-83
2022/06/23 09:44:31;;;;;;;8.68;2.45;;;;;;;;;;5034632;28;20049;-84
2022/06/23 09:47:35;;;;;;;9.32;2.60;;;;;;;;;;5035149;28;20116;-83
2022/06/23 09:50:26;;;;;;;8.43;2.75;;;;;;;;;;4980001;28;20049;-83
2022/06/23 09:53:31;;;;;;;10.40;2.60;;;;;;;;;;5034672;28;20037;-83
2022/06/23 09:56:09;;;;;;;7.10;2.67;;;;;;;;;;5020203;28;20038;-83
2022/06/23 09:58:45;;;;;;;9.73;2.50;;;;;;;;;;5034781;28;20041;-82
2022/06/23 10:01:26;;;;;;;9.27;2.35;;;;;;;;;;5035246;28;20505;-83
2022/06/23 10:04:10;;;;;;;8.68;2.45;;;;;;;;;;5035477;28;20482;-83
2022/06/23 10:07:00;;;;;;;8.10;2.83;;;;;;;;;;5001161;28;20409;-83
2022/06/23 10:09:34;;;;;;;6.72;2.47;;;;;;;;;;5035271;28;20047;-83
2022/06/23 10:12:25;;;;;;;9.82;2.40;;;;;;;;;;5017683;28;20084;-83
2022/06/23 10:15:42;;;;;;;10.30;2.30;;;;;;;;;;5034375;28;20128;-83
2022/06/23 10:18:39;;;;;;;12.90;3.00;;;;;;;;;;4954248;29;20107;-83
2022/06/23 10:21:13;;;;;;;10.60;2.70;;;;;;;;;;4937935;29;20499;-83
2022/06/23 10:24:00;;;;;;;12.27;2.60;;;;;;;;;;5012340;28;20037;-83
2022/06/23 10:26:47;;;;;;;10.32;2.58;;;;;;;;;;5016539;28;20033;-83
2022/06/23 10:29:53;;;;;;;8.82;2.75;;;;;;;;;;5034022;28;20151;-83
2022/06/23 10:32:35;;;;;;;7.35;2.25;;;;;;;;;;5016629;28;20037;-83
2022/06/23 10:35:26;;;;;;;11.48;2.10;;;;;;;;;;5033978;28;20037;-82
2022/06/23 10:37:57;;;;;;;21.85;2.58;;;;;;;;;;5034157;28;20048;-82
2022/06/23 10:40:44;;;;;;;9.90;2.05;;;;;;;;;;5016286;28;20052;-85
2022/06/23 10:43:31;;;;;;;21.42;3.28;;;;;;;;;;5034209;28;20512;-85
2022/06/23 10:46:04;;;;;;;12.90;2.47;;;;;;;;;;4998728;28;20033;-85
2022/06/23 10:49:03;;;;;;;14.55;2.80;;;;;;;;;;5016414;28;20033;-84
2022/06/23 10:51:44;;;;;;;10.82;2.55;;;;;;;;;;5000076;28;20076;-84
2022/06/23 10:54:34;;;;;;;18.48;2.92;;;;;;;;;;5016357;28;20099;-84
2022/06/23 10:57:33;;;;;;;10.73;2.50;;;;;;;;;;5034478;28;20406;-84
2022/06/23 11:00:05;;;;;;;7.30;2.38;;;;;;;;;;5036044;28;20033;-87
2022/06/23 11:02:38;;;;;;;8.57;2.20;;;;;;;;;;5024071;28;20452;-87
2022/06/23 11:05:18;;;;;;;;;;;;;;;;;;5023454;28;20041;-82
2022/06/23 11:07:56;;;;;;;10.90;2.00;;;;;;;;;;5037972;28;19912;-85
2022/06/23 11:10:54;;;;;;;8.68;2.08;;;;;;;;;;5039132;28;20057;-87
2022/06/23 11:13:32;;;;;;;10.82;2.25;;;;;;;;;;5038212;28;20114;-85
2022/06/23 11:16:11;;;;;;;5.82;2.30;;;;;;;;;;5037511;28;20451;-85
2022/06/23 11:19:03;;;;;;;6.38;2.13;;;;;;;;;;5039840;28;20441;-85
2022/06/23 11:21:28;;;;;;;8.55;2.20;;;;;;;;;;5021373;28;20040;-84
2022/06/23 11:24:12;;;;;;;9.93;2.38;;;;;;;;;;5039130;28;20029;-85
2022/06/23 11:27:05;;;;;;;6.93;1.95;;;;;;;;;;5039296;28;20083;-84
2022/06/23 11:29:48;;;;;;;9.77;2.35;;;;;;;;;;5012047;28;20041;-85
2022/06/23 11:32:52;;;;;;;8.90;2.10;;;;;;;;;;5039543;28;20075;-85
2022/06/23 11:35:45;;;;;;;9.57;2.25;;;;;;;;;;5020436;28;20063;-85
2022/06/23 11:38:22;;;;;;;5.72;2.20;;;;;;;;;;5021641;28;20107;-85
2022/06/23 11:40:56;;;;;;;8.38;2.20;;;;;;;;;;5039301;28;20037;-85
2022/06/23 11:43:28;;;;;;;9.10;2.20;;;;;;;;;;5039452;28;20412;-85
2022/06/23 11:46:07;;;;;;;7.78;2.20;;;;;;;;;;5022642;28;20093;-84
2022/06/23 11:48:33;;;;;;;7.70;2.30;;;;;;;;;;5039547;28;20112;-85
2022/06/23 11:51:20;;;;;;;9.35;2.50;;;;;;;;;;5021783;28;20053;-84
2022/06/23 11:54:05;;;;;;;10.93;2.45;;;;;;;;;;5021421;28;20574;-84
2022/06/23 11:56:49;;;;;;;10.60;2.60;;;;;;;;;;5021619;28;20042;-84
2022/06/23 11:59:32;;;;;;;7.60;2.17;;;;;;;;;;5040775;28;20033;-84
2022/06/23 12:01:58;;;;;;;6.05;2.17;;;;;;;;;;5039934;28;20037;-84
2022/06/23 12:04:46;;;;;;;7.20;2.10;;;;;;;;;;5038807;28;20482;-84
2022/06/23 12:07:24;;;;;;;7.18;2.47;;;;;;;;;;5022129;28;20041;-84
2022/06/23 12:10:04;;;;;;;8.07;2.40;;;;;;;;;;5039466;28;20037;-85
2022/06/23 12:12:33;;;;;;;12.35;2.50;;;;;;;;;;5039565;28;20037;-85
2022/06/23 12:15:01;;;;;;;11.40;2.50;;;;;;;;;;5038416;28;20044;-84
2022/06/23 12:17:32;;;;;;;6.95;2.50;;;;;;;;;;5021288;28;20040;-83
2022/06/23 12:20:07;;;;;;;7.90;2.22;;;;;;;;;;5021951;28;20030;-84
2022/06/23 12:22:39;;;;;;;7.70;2.75;;;;;;;;;;5039458;28;20030;-84
2022/06/23 12:25:32;;;;;;;9.43;2.53;;;;;;;;;;5020730;28;20033;-84
2022/06/23 12:28:21;;;;;;;7.57;2.53;;;;;;;;;;5021135;28;20693;-86
2022/06/23 12:31:15;;;;;;;8.32;2.30;;;;;;;;;;5039653;28;20037;-84
2022/06/23 12:33:53;;;;;;;12.63;2.55;;;;;;;;;;5038907;28;20027;-85
2022/06/23 12:36:44;;;;;;;8.38;2.50;;;;;;;;;;5038208;28;20044;-85
2022/06/23 12:39:18;;;;;;;7.72;2.60;;;;;;;;;;5039553;28;20041;-85
2022/06/23 12:41:54;;;;;;;7.65;2.60;;;;;;;;;;5038014;28;20037;-85
2022/06/23 12:44:47;;;;;;;11.52;2.75;;;;;;;;;;5037509;28;20072;-85
2022/06/23 12:47:18;;;;;;;12.55;2.40;;;;;;;;;;5037494;28;20026;-85
2022/06/23 12:50:07;;;;;;;12.82;2.50;;;;;;;;;;5020251;28;20030;-85
2022/06/23 12:52:51;;;;;;;9.52;2.58;;;;;;;;;;5039024;28;20048;-85
2022/06/23 12:55:35;;;;;;;11.52;2.47;;;;;;;;;;5038148;28;20041;-83
2022/06/23 12:58:37;;;;;;;8.30;2.47;;;;;;;;;;5037373;28;20037;-86
2022/06/23 13:01:28;;;;;;;8.68;2.40;;;;;;;;;;5037977;28;20041;-85
2022/06/23 13:04:26;;;;;;;10.55;2.30;;;;;;;;;;5037378;28;20398;-85
2022/06/23 13:07:12;;;;;;;9.07;2.70;;;;;;;;;;5037309;28;20387;-85
2022/06/23 13:09:37;;;;;;;6.43;2.13;;;;;;;;;;5005188;28;20041;-85
2022/06/23 13:12:40;;;;;;;6.15;2.30;;;;;;;;;;5039857;28;20036;-86
2022/06/23 13:15:12;;;;;;;7.60;2.30;;;;;;;;;;5038432;28;20033;-85
2022/06/23 13:17:51;;;;;;;9.27;2.05;;;;;;;;;;5038720;28;20053;-85
2022/06/23 13:20:39;;;;;;;11.80;2.10;;;;;;;;;;5037573;28;20091;-85
2022/06/23 13:23:13;;;;;;;9.70;2.40;;;;;;;;;;5025265;28;20049;-85
2022/06/23 13:25:52;;;;;;;11.68;2.30;;;;;;;;;;5035757;28;20039;-85
2022/06/23 13:28:30;;;;;;;11.25;2.40;;;;;;;;;;5038412;28;20033;-84
2022/06/23 13:31:02;;;;;;;7.38;2.17;;;;;;;;;;5037789;28;20379;-85
2022/06/23 13:33:41;;;;;;;9.05;2.72;;;;;;;;;;5037274;28;20033;-85
2022/06/23 13:36:24;;;;;;;9.88;2.28;;;;;;;;;;5036846;28;20489;-85
2022/06/23 13:39:05;;;;;;;10.77;2.63;;;;;;;;;;5038608;28;20045;-84
2022/06/23 13:41:39;;;;;;;7.95;2.47;;;;;;;;;;5038651;28;20033;-85
2022/06/23 13:44:41;;;;;;;9.13;2.42;;;;;;;;;;5020031;28;20041;-83
2022/06/23 13:47:16;;;;;;;14.20;2.67;;;;;;;;;;5037508;28;20061;-85
2022/06/23 13:50:15;;;;;;;8.40;2.17;;;;;;;;;;5037266;28;20029;-85
2022/06/23 13:52:51;;;;;;;9.77;2.45;;;;;;;;;;5038384;28;20033;-85
2022/06/23 13:55:58;;;;;;;12.73;2.25;;;;;;;;;;5036377;28;20042;-85
2022/06/23 13:58:35;;;;;;;9.10;2.33;;;;;;;;;;5037035;28;20057;-85
2022/06/23 14:01:07;;;;;;;15.45;2.50;;;;;;;;;;5036881;28;20037;-85
2022/06/23 14:03:42;;;;;;;12.32;2.40;;;;;;;;;;5037110;28;20041;-85
2022/06/23 14:06:25;;;;;;;12.35;2.38;;;;;;;;;;5018140;28;20045;-85
2022/06/23 14:09:00;;;;;;;;;;;;;;;;;;5037153;28;20474;-85
2022/06/23 14:11:51;;;;;;;11.00;2.60;;;;;;;;;;5036027;28;20385;-86
2022/06/23 14:14:20;;;;;;;13.65;2.55;;;;;;;;;;5036642;28;20055;-85
2022/06/23 14:17:04;;;;;;;11.15;2.50;;;;;;;;;;5036193;28;20037;-86
2022/06/23 14:19:39;;;;;;;10.02;2.08;;;;;;;;;;5036340;28;20041;-85
2022/06/23 14:22:26;;;;;;;8.38;2.08;;;;;;;;;;5035743;28;20461;-86
2022/06/23 14:25:01;;;;;;;11.02;2.05;;;;;;;;;;5016971;28;20064;-85
2022/06/23 14:27:58;;;;;;;7.78;2.10;;;;;;;;;;5035478;28;20038;-86
2022/06/23 14:30:38;;;;;;;9.65;2.40;;;;;;;;;;4985216;28;20465;-85
2022/06/23 14:33:11;;;;;;;9.57;2.00;;;;;;;;;;5034616;28;20029;-85
2022/06/23 14:35:59;;;;;;;9.10;2.15;;;;;;;;;;5018453;28;20402;-85
2022/06/23 14:38:51;;;;;;;8.90;2.00;;;;;;;;;;5040773;28;20092;-84
2022/06/23 14:41:44;;;;;;;9.50;2.17;;;;;;;;;;5023179;28;20037;-84
2022/06/23 14:44:34;;;;;;;9.82;1.92;;;;;;;;;;5039860;28;20109;-84
2022/06/23 14:47:08;;;;;;;9.32;2.03;;;;;;;;;;5039781;28;20068;-85
2022/06/23 14:49:40;;;;;;;14.82;2.40;;;;;;;;;;5021583;28;20045;-85
2022/06/23 14:52:31;;;;;;;8.75;2.13;;;;;;;;;;5040198;28;20064;-85
2022/06/23 14:55:09;;;;;;;8.35;2.10;;;;;;;;;;5040096;28;20044;-85
2022/06/23 14:57:38;;;;;;;10.70;2.30;;;;;;;;;;5040626;28;20037;-82
2022/06/23 15:00:31;;;;;;;10.10;2.20;;;;;;;;;;5006169;28;20464;-83
2022/06/23 15:03:31;;;;;;;9.67;2.67;;;;;;;;;;5040594;28;20425;-85
2022/06/23 15:06:17;;;;;;;12.43;2.22;;;;;;;;;;5040176;28;20403;-84
2022/06/23 15:08:49;;;;;;;11.70;2.20;;;;;;;;;;5039198;28;20489;-83
2022/06/23 15:11:45;;;;;;;8.48;2.20;;;;;;;;;;5040433;28;20470;-84
2022/06/23 15:14:23;;;;;;;10.98;2.08;;;;;;;;;;5039732;28;20045;-85
2022/06/23 15:17:28;;;;;;;7.20;2.00;;;;;;;;;;5039988;28;20093;-85
2022/06/23 15:20:14;;;;;;;14.57;2.42;;;;;;;;;;5008281;28;20136;-85
2022/06/23 15:23:11;;;;;;;12.73;2.08;;;;;;;;;;5040541;28;20045;-85
2022/06/23 15:26:15;;;;;;;11.73;2.30;;;;;;;;;;5021457;28;20124;-83
2022/06/23 15:28:50;;;;;;;13.88;2.20;;;;;;;;;;4939597;29;20047;-84
2022/06/23 15:31:18;;;;;;;7.32;2.20;;;;;;;;;;5028099;28;20049;-84
2022/06/23 15:34:02;;;;;;;8.80;2.08;;;;;;;;;;5039381;28;20045;-85
2022/06/23 15:37:02;;;;;;;11.15;2.17;;;;;;;;;;5039083;28;20037;-84
2022/06/23 15:39:52;;;;;;;9.15;2.22;;;;;;;;;;5022840;28;20037;-85
2022/06/23 15:42:40;;;;;;;11.55;2.42;;;;;;;;;;5021398;28;20111;-85
2022/06/23 15:45:34;;;;;;;9.85;2.10;;;;;;;;;;5021088;28;20067;-85
2022/06/23 15:48:04;;;;;;;9.15;2.00;;;;;;;;;;5020263;28;20041;-84
2022/06/23 15:50:40;;;;;;;12.18;2.20;;;;;;;;;;5019998;28;20410;-83
2022/06/23 15:53:32;;;;;;;10.27;2.00;;;;;;;;;;5037790;28;20041;-83
2022/06/23 15:56:19;;;;;;;9.18;2.22;;;;;;;;;;5019996;28;20446;-84
2022/06/23 15:58:59;;;;;;;9.75;2.25;;;;;;;;;;5018959;28;20057;-85
2022/06/23 16:01:49;;;;;;;7.93;2.00;;;;;;;;;;5038977;28;20418;-87
2022/06/23 16:04:19;;;;;;;8.25;2.08;;;;;;;;;;5004813;28;20384;-85
2022/06/23 16:06:48;;;;;;;11.20;2.17;;;;;;;;;;5038448;28;20028;-87
2022/06/23 16:09:27;;;;;;;15.27;2.45;;;;;;;;;;5021089;28;20493;-83
2022/06/23 16:11:56;;;;;;;9.52;2.17;;;;;;;;;;5039784;28;20172;-84
2022/06/23 16:14:41;;;;;;;7.80;1.98;;;;;;;;;;5037638;28;20059;-83
2022/06/23 16:17:11;;;;;;;12.32;2.30;;;;;;;;;;5038604;28;20037;-86
2022/06/23 16:19:42;;;;;;;9.55;2.40;;;;;;;;;;5003986;28;20095;-86
2022/06/23 16:22:32;;;;;;;8.18;2.30;;;;;;;;;;5021144;28;20068;-85
2022/06/23 16:25:03;;;;;;;10.18;2.65;;;;;;;;;;5021236;28;20053;-84